createdAt,value
2022-09-01T00:01:44.608Z,14.46
2022-09-01T00:04:19.241Z,14.44
2022-09-01T00:06:54.805Z,14.40
2022-09-01T00:09:26.493Z,14.38
2022-09-01T00:11:55.840Z,14.34
2022-09-01T00:14:30.786Z,14.26
2022-09-01T00:17:09.331Z,14.13
2022-09-01T00:19:35.879Z,14.07
2022-09-01T00:22:04.939Z,14.08
2022-09-01T00:24:31.931Z,14.04
2022-09-01T00:26:58.827Z,13.96
2022-09-01T00:29:28.151Z,13.96
2022-09-01T00:32:07.515Z,13.88
2022-09-01T00:34:37.851Z,13.85
2022-09-01T00:37:11.157Z,13.83
2022-09-01T00:39:51.488Z,13.84
2022-09-01T00:42:21.139Z,13.78
2022-09-01T00:44:52.300Z,13.77
2022-09-01T00:47:21.767Z,13.75
2022-09-01T00:49:53.152Z,13.69
2022-09-01T00:52:33.404Z,13.62
2022-09-01T00:55:07.357Z,13.60
2022-09-01T00:57:40.199Z,13.56
2022-09-01T01:00:17.785Z,13.52
2022-09-01T01:02:48.158Z,13.52
2022-09-01T01:05:16.261Z,13.42
2022-09-01T01:07:47.846Z,13.41
2022-09-01T01:10:37.317Z,13.39
2022-09-01T01:13:16.775Z,13.35
2022-09-01T01:15:45.779Z,13.29
2022-09-01T01:18:25.334Z,13.29
2022-09-01T01:21:04.652Z,13.37
2022-09-01T01:23:36.422Z,13.32
2022-09-01T01:26:06.817Z,13.31
2022-09-01T01:28:57.781Z,13.31
2022-09-01T01:31:26.563Z,13.30
2022-09-01T01:34:06.543Z,13.38
2022-09-01T01:36:35.884Z,13.39
2022-09-01T01:39:14.567Z,13.33
2022-09-01T01:41:47.342Z,13.32
2022-09-01T01:44:19.816Z,13.29
2022-09-01T01:46:52.221Z,13.31
2022-09-01T01:49:23.936Z,13.27
2022-09-01T01:51:52.551Z,13.25
2022-09-01T01:54:22.649Z,13.23
2022-09-01T01:57:43.520Z,13.21
2022-09-01T01:59:47.450Z,13.18
2022-09-01T02:02:16.436Z,13.15
2022-09-01T02:04:45.640Z,13.16
2022-09-01T02:07:17.397Z,13.16
2022-09-01T02:10:02.093Z,13.16
2022-09-01T02:15:16.312Z,13.13
2022-09-01T02:17:45.359Z,13.18
2022-09-01T02:20:13.934Z,13.14
2022-09-01T02:22:46.133Z,13.24
2022-09-01T02:25:19.033Z,13.26
2022-09-01T02:27:48.071Z,13.22
2022-09-01T02:30:17.345Z,13.16
2022-09-01T02:32:47.449Z,13.19
2022-09-01T02:35:16.094Z,13.17
2022-09-01T02:37:46.373Z,13.16
2022-09-01T02:40:16.266Z,13.17
2022-09-01T02:43:02.524Z,13.15
2022-09-01T02:45:43.296Z,13.14
2022-09-01T02:48:13.641Z,13.07
2022-09-01T02:50:48.283Z,13.02
2022-09-01T02:53:19.151Z,13.05
2022-09-01T02:55:47.055Z,13.02
2022-09-01T02:58:15.088Z,12.99
2022-09-01T03:00:46.944Z,12.97
2022-09-01T03:03:15.583Z,12.97
2022-09-01T03:05:45.915Z,12.97
2022-09-01T03:08:19.071Z,12.98
2022-09-01T03:10:49.913Z,13.00
2022-09-01T03:13:21.637Z,12.97
2022-09-01T03:15:53.726Z,12.99
2022-09-01T03:18:29.053Z,13.01
2022-09-01T03:20:59.231Z,13.07
2022-09-01T03:23:26.859Z,13.09
2022-09-01T03:25:59.877Z,13.08
2022-09-01T03:29:19.773Z,13.13
2022-09-01T03:31:20.285Z,13.09
2022-09-01T03:33:49.049Z,13.08
2022-09-01T03:36:17.519Z,13.05
2022-09-01T03:38:47.255Z,13.05
2022-09-01T03:41:27.576Z,12.99
2022-09-01T03:43:57.473Z,12.92
2022-09-01T03:46:25.311Z,12.82
2022-09-01T03:48:58.385Z,12.76
2022-09-01T03:51:25.741Z,12.77
2022-09-01T03:53:57.265Z,12.68
2022-09-01T03:56:29.878Z,12.65
2022-09-01T03:59:11.202Z,12.59
2022-09-01T04:01:41.142Z,12.51
2022-09-01T04:04:07.858Z,12.51
2022-09-01T04:06:37.520Z,12.48
2022-09-01T04:09:16.518Z,12.47
2022-09-01T04:11:46.085Z,12.44
2022-09-01T04:14:17.296Z,12.41
2022-09-01T04:16:47.107Z,12.44
2022-09-01T04:19:22.512Z,12.48
2022-09-01T04:21:52.500Z,12.42
2022-09-01T04:24:21.541Z,12.40
2022-09-01T04:26:56.110Z,12.44
2022-09-01T04:29:23.254Z,12.37
2022-09-01T04:31:49.817Z,12.34
2022-09-01T04:34:16.402Z,12.30
2022-09-01T04:36:46.998Z,12.31
2022-09-01T04:39:19.001Z,12.27
2022-09-01T04:41:47.258Z,12.26
2022-09-01T04:44:14.744Z,12.25
2022-09-01T04:46:43.666Z,12.22
2022-09-01T04:49:15.835Z,12.17
2022-09-01T04:51:54.295Z,12.14
2022-09-01T04:54:25.250Z,12.12
2022-09-01T04:56:52.319Z,12.14
2022-09-01T04:59:44.017Z,12.09
2022-09-01T05:02:10.511Z,12.09
2022-09-01T05:04:40.306Z,12.08
2022-09-01T05:07:14.067Z,12.13
2022-09-01T05:09:40.886Z,12.17
2022-09-01T05:12:07.667Z,12.18
2022-09-01T05:14:36.858Z,12.23
2022-09-01T05:17:04.352Z,12.30
2022-09-01T05:19:31.037Z,12.34
2022-09-01T05:22:05.846Z,12.38
2022-09-01T05:24:34.952Z,12.40
2022-09-01T05:27:09.157Z,12.44
2022-09-01T05:29:55.290Z,12.48
2022-09-01T05:32:23.082Z,12.51
2022-09-01T05:34:53.349Z,12.56
2022-09-01T05:37:25.320Z,12.59
2022-09-01T05:39:53.196Z,12.71
2022-09-01T05:42:23.054Z,12.74
2022-09-01T05:44:53.613Z,12.91
2022-09-01T05:47:22.597Z,13.84
2022-09-01T05:49:49.849Z,14.81
2022-09-01T05:52:17.323Z,16.26
2022-09-01T05:54:46.151Z,18.44
2022-09-01T05:57:33.366Z,20.29
2022-09-01T06:00:03.459Z,22.04
2022-09-01T06:02:34.450Z,23.56
2022-09-01T06:05:02.641Z,24.91
2022-09-01T06:07:32.193Z,25.87
2022-09-01T06:10:09.542Z,26.90
2022-09-01T06:12:43.119Z,27.34
2022-09-01T06:15:17.399Z,27.55
2022-09-01T06:17:48.424Z,27.01
2022-09-01T06:20:16.284Z,27.81
2022-09-01T06:22:54.760Z,28.08
2022-09-01T06:25:25.196Z,28.48
2022-09-01T06:27:54.989Z,28.03
2022-09-01T06:30:24.267Z,28.01
2022-09-01T06:32:52.091Z,28.56
2022-09-01T06:35:21.692Z,30.13
2022-09-01T06:37:48.244Z,30.75
2022-09-01T06:40:16.674Z,30.36
2022-09-01T06:42:50.924Z,30.65
2022-09-01T06:45:24.438Z,31.63
2022-09-01T06:47:59.358Z,32.19
2022-09-01T06:56:04.118Z,29.16
2022-09-01T06:58:30.896Z,26.48
2022-09-01T07:01:00.285Z,28.76
2022-09-01T07:03:35.993Z,30.56
2022-09-01T07:06:06.860Z,30.33
2022-09-01T07:14:15.692Z,21.10
2022-09-01T07:16:52.049Z,20.93
2022-09-01T07:19:21.865Z,22.96
2022-09-01T07:24:37.633Z,27.40
2022-09-01T07:27:10.894Z,30.49
2022-09-01T07:29:41.775Z,31.56
2022-09-01T07:35:01.143Z,28.92
2022-09-01T07:42:31.191Z,26.64
2022-09-01T07:43:33.420Z,32.75
2022-09-01T07:49:29.324Z,33.79
2022-09-01T07:51:48.598Z,32.00
2022-09-01T07:54:16.538Z,32.32
2022-09-01T07:56:53.424Z,34.30
2022-09-01T07:59:20.145Z,35.26
2022-09-01T08:01:47.380Z,35.64
2022-09-01T08:04:17.579Z,33.55
2022-09-01T08:06:49.527Z,31.22
2022-09-01T08:09:33.045Z,32.09
2022-09-01T08:12:05.672Z,33.72
2022-09-01T08:14:40.593Z,35.07
2022-09-01T08:19:57.471Z,36.17
2022-09-01T08:22:33.774Z,34.40
2022-09-01T08:25:10.830Z,33.35
2022-09-01T08:28:03.262Z,33.14
2022-09-01T08:30:33.107Z,31.88
2022-09-01T08:33:11.186Z,30.19
2022-09-01T08:35:43.531Z,29.13
2022-09-01T08:38:14.331Z,28.75
2022-09-01T08:40:57.593Z,27.89
2022-09-01T08:43:37.489Z,31.28
2022-09-01T08:46:21.618Z,34.45
2022-09-01T08:52:06.216Z,34.29
2022-09-01T08:54:51.493Z,34.90
2022-09-01T08:57:33.848Z,35.58
2022-09-01T09:00:03.433Z,36.80
2022-09-01T09:02:33.113Z,36.54
2022-09-01T09:05:40.322Z,37.06
2022-09-01T09:08:10.783Z,35.56
2022-09-01T09:11:02.110Z,36.19
2022-09-01T09:14:09.168Z,36.65
2022-09-01T09:16:47.817Z,35.70
2022-09-01T09:20:05.598Z,35.40
2022-09-01T09:22:19.678Z,34.81
2022-09-01T09:24:56.248Z,36.01
2022-09-01T09:27:23.219Z,36.37
2022-09-01T09:30:04.199Z,37.39
2022-09-01T09:35:46.806Z,37.16
2022-09-01T09:38:21.026Z,37.59
2022-09-01T09:41:17.593Z,38.29
2022-09-01T09:44:22.807Z,37.94
2022-09-01T09:47:42.378Z,37.58
2022-09-01T09:50:06.718Z,36.93
2022-09-01T09:52:38.235Z,37.65
2022-09-01T09:55:22.484Z,36.93
2022-09-01T09:57:50.823Z,36.55
2022-09-01T10:00:25.854Z,35.63
2022-09-01T10:03:01.555Z,36.57
2022-09-01T10:05:48.206Z,36.63
2022-09-01T10:08:46.569Z,35.87
2022-09-01T10:11:41.440Z,36.33
2022-09-01T10:15:30.215Z,34.89
2022-09-01T10:18:30.809Z,34.92
2022-09-01T10:20:35.821Z,34.61
2022-09-01T10:23:04.596Z,34.60
2022-09-01T10:25:55.231Z,35.19
2022-09-01T10:28:36.256Z,36.39
2022-09-01T10:31:09.424Z,36.34
2022-09-01T10:33:38.721Z,32.99
2022-09-01T10:36:24.339Z,33.21
2022-09-01T10:39:04.350Z,31.57
2022-09-01T10:42:03.467Z,30.51
2022-09-01T10:44:50.073Z,33.03
2022-09-01T10:47:32.597Z,31.82
2022-09-01T10:50:09.755Z,28.37
2022-09-01T10:52:53.704Z,26.44
2022-09-01T10:55:26.834Z,24.75
2022-09-01T10:59:29.757Z,24.25
2022-09-01T11:03:52.193Z,29.47
2022-09-01T11:09:44.847Z,27.42
2022-09-01T11:12:30.243Z,26.22
2022-09-01T11:15:06.925Z,25.64
2022-09-01T11:17:37.935Z,25.23
2022-09-01T11:20:06.562Z,25.05
2022-09-01T11:22:39.308Z,28.91
2022-09-01T11:25:38.705Z,31.01
2022-09-01T11:28:08.250Z,29.68
2022-09-01T11:30:34.691Z,30.58
2022-09-01T11:33:13.409Z,31.76
2022-09-01T11:35:40.036Z,29.86
2022-09-01T11:38:09.000Z,26.95
2022-09-01T11:40:36.716Z,27.73
2022-09-01T11:43:24.131Z,29.86
2022-09-01T11:46:09.577Z,30.86
2022-09-01T11:48:39.144Z,32.29
2022-09-01T11:51:05.675Z,31.08
2022-09-01T11:53:32.508Z,29.28
2022-09-01T11:56:18.750Z,28.67
2022-09-01T11:58:45.327Z,28.34
2022-09-01T12:01:22.236Z,29.74
2022-09-01T12:03:51.015Z,27.29
2022-09-01T12:06:24.612Z,25.46
2022-09-01T12:09:03.506Z,25.55
2022-09-01T12:11:33.017Z,26.58
2022-09-01T12:14:05.640Z,26.82
2022-09-01T12:16:37.817Z,26.07
2022-09-01T12:19:06.055Z,25.89
2022-09-01T12:21:36.348Z,26.28
2022-09-01T12:24:18.567Z,26.11
2022-09-01T12:26:47.840Z,25.96
2022-09-01T12:29:15.322Z,26.19
2022-09-01T12:31:44.382Z,26.38
2022-09-01T12:34:28.825Z,26.53
2022-09-01T12:37:15.702Z,26.30
2022-09-01T12:39:47.960Z,25.83
2022-09-01T12:42:20.542Z,25.43
2022-09-01T12:44:56.731Z,24.91
2022-09-01T12:47:35.384Z,24.09
2022-09-01T12:50:06.052Z,24.52
2022-09-01T12:52:35.431Z,25.13
2022-09-01T12:55:01.826Z,24.79
2022-09-01T12:57:30.343Z,24.75
2022-09-01T13:00:12.357Z,25.29
2022-09-01T13:02:47.510Z,25.46
2022-09-01T13:05:33.634Z,24.64
2022-09-01T13:08:08.677Z,25.10
2022-09-01T13:10:47.558Z,24.97
2022-09-01T13:13:15.213Z,24.99
2022-09-01T13:15:44.654Z,25.24
2022-09-01T13:18:11.649Z,25.88
2022-09-01T13:20:38.174Z,25.94
2022-09-01T13:23:04.573Z,25.89
2022-09-01T13:25:31.109Z,25.30
2022-09-01T13:27:57.541Z,24.69
2022-09-01T13:30:25.413Z,24.80
2022-09-01T13:35:39.199Z,26.01
2022-09-01T13:38:05.736Z,25.79
2022-09-01T13:40:32.209Z,25.30
2022-09-01T13:42:58.677Z,24.95
2022-09-01T13:45:25.433Z,25.02
2022-09-01T13:51:18.475Z,24.12
2022-09-01T13:53:45.323Z,23.94
2022-09-01T13:56:11.785Z,24.37
2022-09-01T13:58:38.233Z,24.80
2022-09-01T14:01:04.889Z,24.72
2022-09-01T14:03:31.373Z,24.81
2022-09-01T14:05:57.821Z,25.05
2022-09-01T14:08:24.263Z,25.23
2022-09-01T14:10:52.688Z,25.49
2022-09-01T14:13:24.170Z,25.44
2022-09-01T14:15:51.064Z,25.48
2022-09-01T14:18:17.878Z,25.79
2022-09-01T14:20:47.648Z,25.95
2022-09-01T14:23:15.482Z,25.48
2022-09-01T14:25:47.950Z,25.29
2022-09-01T14:28:16.580Z,25.42
2022-09-01T14:30:48.461Z,25.38
2022-09-01T14:33:18.930Z,25.11
2022-09-01T14:35:47.829Z,25.23
2022-09-01T14:38:15.005Z,25.49
2022-09-01T14:40:43.276Z,25.10
2022-09-01T14:43:11.414Z,24.79
2022-09-01T14:45:37.951Z,24.41
2022-09-01T14:48:04.998Z,24.80
2022-09-01T14:50:32.274Z,24.85
2022-09-01T14:53:00.617Z,24.98
2022-09-01T14:55:29.794Z,24.96
2022-09-01T14:57:57.161Z,25.20
2022-09-01T15:00:24.890Z,25.34
2022-09-01T15:02:51.923Z,25.42
2022-09-01T15:05:18.414Z,25.29
2022-09-01T15:07:45.044Z,25.12
2022-09-01T15:10:15.898Z,25.10
2022-09-01T15:12:50.252Z,25.08
2022-09-01T15:15:17.448Z,25.27
2022-09-01T15:17:46.424Z,25.39
2022-09-01T15:20:13.414Z,25.28
2022-09-01T15:22:41.095Z,24.75
2022-09-01T15:25:07.947Z,24.65
2022-09-01T15:27:38.257Z,24.62
2022-09-01T15:30:10.514Z,24.63
2022-09-01T15:32:37.130Z,25.05
2022-09-01T15:35:03.786Z,25.11
2022-09-01T15:37:30.245Z,25.13
2022-09-01T15:39:56.829Z,25.39
2022-09-01T15:42:23.321Z,25.36
2022-09-01T15:44:49.804Z,25.29
2022-09-01T15:47:16.411Z,24.71
2022-09-01T15:49:42.813Z,24.33
2022-09-01T15:52:10.175Z,24.28
2022-09-01T15:54:39.053Z,24.05
2022-09-01T15:57:06.475Z,23.98
2022-09-01T15:59:35.433Z,24.22
2022-09-01T16:02:02.103Z,24.46
2022-09-01T16:04:28.635Z,24.54
2022-09-01T16:06:55.036Z,24.50
2022-09-01T16:09:21.519Z,24.47
2022-09-01T16:11:48.337Z,24.45
2022-09-01T16:14:14.836Z,23.99
2022-09-01T16:16:59.356Z,23.83
2022-09-01T16:19:52.120Z,23.83
2022-09-01T16:22:28.147Z,24.07
2022-09-01T16:24:59.161Z,24.09
2022-09-01T16:27:38.995Z,23.75
2022-09-01T16:30:09.100Z,23.77
2022-09-01T16:32:37.966Z,23.37
2022-09-01T16:35:04.790Z,23.50
2022-09-01T16:37:31.170Z,23.46
2022-09-01T16:40:16.267Z,23.38
2022-09-01T16:42:47.775Z,23.33
2022-09-01T16:45:45.122Z,23.20
2022-09-01T16:48:29.938Z,22.95
2022-09-01T16:51:12.524Z,23.08
2022-09-01T16:53:57.243Z,23.02
2022-09-01T16:56:39.307Z,22.92
2022-09-01T16:59:48.762Z,22.82
2022-09-01T17:03:16.948Z,22.82
2022-09-01T17:05:54.884Z,22.57
2022-09-01T17:08:33.116Z,22.43
2022-09-01T17:11:16.886Z,22.24
2022-09-01T17:13:48.115Z,22.19
2022-09-01T17:16:22.813Z,22.11
2022-09-01T17:18:59.412Z,22.04
2022-09-01T17:21:45.466Z,21.79
2022-09-01T17:24:30.175Z,21.56
2022-09-01T17:26:58.542Z,21.31
2022-09-01T17:29:41.492Z,21.08
2022-09-01T17:32:35.291Z,21.03
2022-09-01T17:35:24.806Z,20.91
2022-09-01T17:37:57.249Z,20.87
2022-09-01T17:40:48.828Z,20.54
2022-09-01T17:43:30.200Z,20.40
2022-09-01T17:45:56.761Z,20.26
2022-09-01T17:48:28.841Z,20.25
2022-09-01T17:51:13.676Z,20.18
2022-09-01T17:53:48.933Z,20.13
2022-09-01T17:56:41.050Z,19.94
2022-09-01T17:59:29.253Z,19.74
2022-09-01T18:01:55.894Z,19.63
2022-09-01T18:04:47.072Z,19.63
2022-09-01T18:07:54.629Z,19.46
2022-09-01T18:10:28.124Z,19.45
2022-09-01T18:13:01.734Z,19.34
2022-09-01T18:15:40.178Z,19.24
2022-09-01T18:18:23.321Z,19.10
2022-09-01T18:20:52.927Z,18.96
2022-09-01T18:23:19.698Z,19.00
2022-09-01T18:25:53.833Z,18.90
2022-09-01T18:28:20.623Z,18.72
2022-09-01T18:31:16.484Z,18.69
2022-09-01T18:33:57.848Z,18.65
2022-09-01T18:36:41.381Z,18.50
2022-09-01T18:39:16.212Z,18.49
2022-09-01T18:41:48.201Z,18.73
2022-09-01T18:44:49.113Z,18.60
2022-09-01T18:47:17.741Z,18.40
2022-09-01T18:50:21.046Z,18.31
2022-09-01T18:53:00.098Z,18.11
2022-09-01T18:55:47.647Z,18.06
2022-09-01T18:58:26.371Z,17.91
2022-09-01T19:01:02.861Z,17.89
2022-09-01T19:03:36.433Z,17.92
2022-09-01T19:06:32.453Z,17.86
2022-09-01T19:09:14.129Z,17.86
2022-09-01T19:12:12.764Z,17.93
2022-09-01T19:14:41.910Z,17.88
2022-09-01T19:17:19.297Z,17.88
2022-09-01T19:19:58.089Z,17.93
2022-09-01T19:22:40.943Z,17.97
2022-09-01T19:25:11.209Z,17.94
2022-09-01T19:27:37.727Z,17.92
2022-09-01T19:30:05.894Z,17.91
2022-09-01T19:32:35.794Z,17.89
2022-09-01T19:35:09.977Z,17.83
2022-09-01T19:37:36.811Z,17.78
2022-09-01T19:40:05.218Z,17.75
2022-09-01T19:42:47.885Z,17.73
2022-09-01T19:45:37.883Z,17.67
2022-09-01T19:48:21.257Z,17.63
2022-09-01T19:50:56.428Z,17.60
2022-09-01T19:53:50.530Z,17.57
2022-09-01T19:56:49.714Z,17.58
2022-09-01T19:59:23.609Z,17.49
2022-09-01T20:01:54.965Z,17.44
2022-09-01T20:04:53.902Z,17.39
2022-09-01T20:07:23.725Z,17.33
2022-09-01T20:10:14.798Z,17.32
2022-09-01T20:13:01.481Z,17.24
2022-09-01T20:15:43.614Z,17.18
2022-09-01T20:18:21.110Z,17.07
2022-09-01T20:20:49.545Z,17.10
2022-09-01T20:23:46.945Z,17.08
2022-09-01T20:26:17.620Z,16.96
2022-09-01T20:28:54.749Z,16.95
2022-09-01T20:31:31.801Z,16.91
2022-09-01T20:34:06.116Z,17.27
2022-09-01T20:36:56.185Z,17.04
2022-09-01T20:39:36.653Z,16.84
2022-09-01T20:42:10.139Z,16.80
2022-09-01T20:44:52.541Z,16.69
2022-09-01T20:47:21.879Z,16.61
2022-09-01T20:49:48.834Z,16.57
2022-09-01T20:52:19.617Z,16.57
2022-09-01T20:58:42.977Z,16.40
2022-09-01T21:01:17.933Z,16.35
2022-09-01T21:04:11.087Z,16.34
2022-09-01T21:10:38.673Z,16.14
2022-09-01T21:17:12.119Z,16.01
2022-09-01T21:20:05.396Z,15.95
2022-09-01T21:22:31.988Z,15.90
2022-09-01T21:24:58.385Z,15.84
2022-09-01T21:27:28.449Z,15.82
2022-09-01T21:29:55.009Z,15.87
2022-09-01T21:32:22.454Z,15.83
2022-09-01T21:34:49.631Z,15.80
2022-09-01T21:37:17.135Z,15.75
2022-09-01T21:39:43.927Z,15.72
2022-09-01T21:42:12.226Z,15.67
2022-09-01T21:44:39.966Z,15.65
2022-09-01T21:47:06.528Z,15.60
2022-09-01T21:49:33.323Z,15.56
2022-09-01T21:52:01.799Z,15.52
2022-09-01T21:54:28.421Z,15.55
2022-09-01T21:56:54.973Z,15.50
2022-09-01T21:59:21.805Z,15.44
2022-09-01T22:01:50.625Z,15.40
2022-09-01T22:04:17.599Z,15.37
2022-09-01T22:06:47.420Z,15.33
2022-09-01T22:09:21.080Z,15.30
2022-09-01T22:11:49.852Z,15.28
2022-09-01T22:14:18.264Z,15.22
2022-09-01T22:16:45.003Z,15.24
2022-09-01T22:19:11.794Z,15.21
2022-09-01T22:21:39.929Z,15.17
2022-09-01T22:24:06.896Z,15.16
2022-09-01T22:26:34.410Z,15.18
2022-09-01T22:29:04.716Z,15.18
2022-09-01T22:31:32.489Z,15.14
2022-09-01T22:34:00.288Z,14.98
2022-09-01T22:36:30.396Z,14.97
2022-09-01T22:38:57.837Z,14.93
2022-09-01T22:41:26.308Z,14.88
2022-09-01T22:43:52.862Z,14.88
2022-09-01T22:46:21.848Z,14.81
2022-09-01T22:48:49.602Z,14.83
2022-09-01T22:51:17.025Z,14.77
2022-09-01T22:53:45.603Z,14.75
2022-09-01T22:56:18.869Z,14.82
2022-09-01T22:58:45.400Z,14.81
2022-09-01T23:01:15.744Z,14.71
2022-09-01T23:03:43.793Z,14.79
2022-09-01T23:06:13.770Z,14.72
2022-09-01T23:08:53.076Z,14.64
2022-09-01T23:11:22.360Z,14.58
2022-09-01T23:13:50.771Z,14.56
2022-09-01T23:16:19.685Z,14.57
2022-09-01T23:18:47.202Z,14.53
2022-09-01T23:21:16.829Z,14.51
2022-09-01T23:23:43.515Z,14.54
2022-09-01T23:26:11.795Z,14.50
2022-09-01T23:28:40.951Z,14.56
2022-09-01T23:31:13.618Z,14.56
2022-09-01T23:33:40.544Z,14.52
2022-09-01T23:36:09.723Z,14.48
2022-09-01T23:38:37.265Z,14.53
2022-09-01T23:41:14.945Z,14.50
2022-09-01T23:43:41.810Z,14.54
2022-09-01T23:46:15.821Z,14.59
2022-09-01T23:48:42.272Z,14.57
2022-09-01T23:51:10.620Z,14.50
2022-09-01T23:53:38.597Z,14.48
2022-09-01T23:56:14.488Z,14.46
2022-09-01T23:58:41.039Z,14.48
